Aérodrome :
LOGIN :

S'inscrire | Disclaimer

   EN    FR    IT 

 










Légende :    VFR   VFR Marginal   IFR   IFR Intensif   IFR Très Intensif
Visi : 
Plafond : 
>= 8 km
>= 3000ft
5 à 8 km
1000 à 3000 ft
1500m à 5 km
500 à 1000 ft
800 à 1500m
200 à 500 ft
< 800m
< 200 ft
Symboles :   Orages  Brouillard  Fortes neiges  Fortes précipitations  Vent > 20 kt
SIGMETs :   Divers  Orages  Givrage  Turbulence  Onde Orograph.  Cendres Volcan.







- Altitude de l'aérodrome : 3360 ft
- Code IATA : QSF


DAAS - 8 Mai 45

DERNIER METAR :
  • 260900Z 04006KT 9999 FEW010 SCT026 11/07 Q1017

METARs EXPIRÉS :
  • 260800Z 04004KT 9999 FEW010 SCT233 11/06 Q1017
  • 260700Z 20001KT 9999 FEW026 10/05 Q1017

TAF TAF DAAS
Valide du 26 à 06h jusqu'au 27 à 06h UTC


260500Z 2606/2706 01010KT 9999 FEW026 SCT200
PROB30
TEMPO 2609/2621 FEW023TCU
Pas de NOTAMs connus pour ce terrain.



MET'MAP, la Météo Aéronautique d'un coup d'oeil ! - Copyright ORBIFLY Décembre 2007 - Disclaimer

ORBIFLY MET'MAP TEAM :

Programmation & Développement : Alexandra Zaïnal
Conception & Développement : Baudouin d'Aumeries
Co-Programmation & Développement : Marc-Olivier Méhu
Soutien technique & logistique : Manuel Goepfert

Contact : metmap@orbifly.com




SOURCES & CREDITS :

   NOAA